Hauptseite
METAR-TAF:

METAR-TAF

Flughäfen :

Flughafen Jekaterinburg

Jekaterinburg, Russland

Breite: 56-50N, Länge: 060-38E, Höhe: 237 m

Beobachtung

Neuester Wetterbericht von vor 17 Minuten, um 08:00 UTC
Wind 8 kt aus Süd/Südost
Temperatur 24°C
Luftfeuchtigkeit 65%
Luftdruck 1013 hPa
Sichtweite 10 km oder mehr
keine Wolken unter 1500 m und keine Kumulonimbus oder Gewitterwolken

METAR: USSS 180800Z 16004MPS CAVOK 24/17 Q1013 R08L/010060 R08R/010060 NOSIG RMK QFE740/0987

Zeit: 13:17 (08:17 UTC)

Prognose

Neuester Wetterbericht von vor 3 Stunden und 18 Minuten, um 04:59 UTC
Gültige Prognose vom 18 um 06 UTC bis 19 um 06 UTC
Wind 6 kt aus Ost/Südost, Böen bis zu 19 kt
Sichtweite 10 km oder mehr
Aufgelockert bewölkt in der Höhe von 2000 ft, Kumulonimbus.
Zeitweise
vom 18 um 18 UTC bis 19 um 06 UTC
Gewitter, Leichtregen

TAF: USSS 180459Z 1806/1906 12003G10MPS 9999 SCT020CB TEMPO 1818/1906 -TSRA

Wetterbeobachtungen und Prognosen von mehr als 4000 Flughäfen (METAR und TAF Bericht).

Die verfügbaren Stationen werden durch gelbe und rote Markierungen auf der Karte dargestellt.

Führen Sie die Maus auf sie, um den Namen der Station zu sehen.

Darauf klicken, um die Beobachtung von Wetterbeobachtungen und Prognosen zu sehen.

Um die Karte zu ändern : klicken Sie auf den grünen Tasten mit einem schwarzen Kreuz Zum Vergrößern, auf den grünen Button mit einem Gedankenstrich zu verkleinern, oder auf die grünen Pfeile für benachbarte Karten.


METAR-TAF: